createdAt,value
2023-10-09T00:00:20.903Z,10.21
2023-10-09T00:02:49.549Z,10.22
2023-10-09T00:05:24.762Z,10.17
2023-10-09T00:07:57.063Z,10.17
2023-10-09T00:10:25.952Z,10.14
2023-10-09T00:12:53.594Z,10.10
2023-10-09T00:15:22.113Z,10.06
2023-10-09T00:17:50.472Z,10.05
2023-10-09T00:20:21.953Z,9.98
2023-10-09T00:22:49.590Z,9.94
2023-10-09T00:25:23.286Z,9.87
2023-10-09T00:27:50.933Z,9.87
2023-10-09T00:30:22.047Z,9.82
2023-10-09T00:33:00.715Z,9.76
2023-10-09T00:35:47.789Z,9.71
2023-10-09T00:38:25.032Z,9.66
2023-10-09T00:41:10.991Z,9.62
2023-10-09T00:43:39.133Z,9.62
2023-10-09T00:46:13.597Z,9.64
2023-10-09T00:48:41.974Z,9.66
2023-10-09T00:51:19.513Z,9.69
2023-10-09T00:53:51.865Z,9.71
2023-10-09T00:56:29.624Z,9.71
2023-10-09T00:59:01.432Z,9.72
2023-10-09T01:01:35.651Z,9.73
2023-10-09T01:04:08.156Z,9.70
2023-10-09T01:06:44.107Z,9.68
2023-10-09T01:09:15.135Z,9.67
2023-10-09T01:11:50.170Z,9.67
2023-10-09T01:14:18.382Z,9.65
2023-10-09T01:16:48.068Z,9.63
2023-10-09T01:19:21.419Z,9.63
2023-10-09T01:21:51.194Z,9.61
2023-10-09T01:24:21.719Z,9.58
2023-10-09T01:26:50.633Z,9.57
2023-10-09T01:29:20.612Z,9.56
2023-10-09T01:31:56.002Z,9.52
2023-10-09T01:34:27.566Z,9.43
2023-10-09T01:36:57.057Z,9.38
2023-10-09T01:39:29.278Z,9.36
2023-10-09T01:42:00.607Z,9.28
2023-10-09T01:44:29.719Z,9.28
2023-10-09T01:46:59.472Z,9.20
2023-10-09T01:49:33.299Z,9.11
2023-10-09T01:52:08.051Z,9.13
2023-10-09T01:54:38.698Z,9.09
2023-10-09T01:57:13.121Z,9.09
2023-10-09T01:59:44.978Z,9.07
2023-10-09T02:02:32.367Z,9.05
2023-10-09T02:05:11.040Z,9.08
2023-10-09T02:07:52.653Z,9.01
2023-10-09T02:10:26.847Z,9.03
2023-10-09T02:12:58.893Z,8.97
2023-10-09T02:18:28.707Z,8.92
2023-10-09T02:21:14.550Z,8.93
2023-10-09T02:23:46.814Z,8.88
2023-10-09T02:26:24.544Z,8.93
2023-10-09T02:29:00.159Z,8.96
2023-10-09T02:31:37.383Z,8.96
2023-10-09T02:34:13.306Z,8.95
2023-10-09T02:36:42.571Z,8.97
2023-10-09T02:39:24.238Z,8.92
2023-10-09T02:41:53.201Z,8.92
2023-10-09T02:44:25.881Z,8.95
2023-10-09T02:46:58.398Z,8.94
2023-10-09T02:49:29.482Z,8.94
2023-10-09T02:51:57.203Z,8.95
2023-10-09T02:54:36.744Z,8.96
2023-10-09T02:57:09.118Z,8.95
2023-10-09T02:59:39.800Z,8.91
2023-10-09T03:02:08.403Z,8.89
2023-10-09T03:04:38.944Z,8.89
2023-10-09T03:07:08.290Z,8.87
2023-10-09T03:09:36.330Z,8.89
2023-10-09T03:12:07.201Z,8.93
2023-10-09T03:14:39.359Z,8.96
2023-10-09T03:17:08.169Z,8.99
2023-10-09T03:19:38.749Z,9.03
2023-10-09T03:22:10.546Z,8.99
2023-10-09T03:24:38.681Z,9.02
2023-10-09T03:27:06.637Z,9.02
2023-10-09T03:29:34.729Z,9.05
2023-10-09T03:32:02.361Z,9.07
2023-10-09T03:34:32.021Z,9.07
2023-10-09T03:37:07.110Z,9.15
2023-10-09T03:39:41.765Z,9.20
2023-10-09T03:42:20.167Z,9.21
2023-10-09T03:44:53.426Z,9.24
2023-10-09T03:47:23.560Z,9.22
2023-10-09T03:49:52.600Z,9.21
2023-10-09T03:52:21.600Z,9.23
2023-10-09T03:54:50.671Z,9.26
2023-10-09T03:57:20.357Z,9.29
2023-10-09T03:59:48.811Z,9.33
2023-10-09T04:02:17.199Z,9.32
2023-10-09T04:04:48.412Z,9.37
2023-10-09T04:07:17.657Z,9.43
2023-10-09T04:09:55.120Z,9.44
2023-10-09T04:12:25.955Z,9.47
2023-10-09T04:14:58.889Z,9.49
2023-10-09T04:17:37.083Z,9.51
2023-10-09T04:20:23.754Z,9.55
2023-10-09T04:23:01.364Z,9.55
2023-10-09T04:25:30.780Z,9.58
2023-10-09T04:28:10.156Z,9.63
2023-10-09T04:30:41.759Z,9.68
2023-10-09T04:33:29.108Z,9.71
2023-10-09T04:36:11.362Z,9.77
2023-10-09T04:38:39.740Z,9.77
2023-10-09T04:41:10.389Z,9.80
2023-10-09T04:43:37.051Z,9.83
2023-10-09T04:46:14.108Z,9.86
2023-10-09T04:48:41.125Z,9.89
2023-10-09T04:51:35.551Z,9.87
2023-10-09T04:54:14.145Z,9.90
2023-10-09T04:56:53.586Z,9.91
2023-10-09T04:59:26.036Z,9.94
2023-10-09T05:02:00.110Z,9.92
2023-10-09T05:04:40.307Z,9.95
2023-10-09T05:07:22.561Z,9.93
2023-10-09T05:10:15.800Z,9.94
2023-10-09T05:12:48.586Z,9.95
2023-10-09T05:15:17.207Z,9.94
2023-10-09T05:17:53.157Z,9.90
2023-10-09T05:20:38.147Z,9.91
2023-10-09T05:23:24.518Z,9.92
2023-10-09T05:25:56.498Z,9.96
2023-10-09T05:28:32.838Z,9.99
2023-10-09T05:31:10.173Z,10.02
2023-10-09T05:33:38.887Z,10.03
2023-10-09T05:36:18.535Z,10.07
2023-10-09T05:38:59.765Z,10.08
2023-10-09T05:41:48.144Z,10.13
2023-10-09T05:44:35.177Z,10.12
2023-10-09T05:47:20.509Z,10.12
2023-10-09T05:49:55.532Z,10.15
2023-10-09T05:52:33.782Z,10.17
2023-10-09T05:55:42.011Z,10.20
2023-10-09T05:58:27.141Z,10.25
2023-10-09T06:01:13.762Z,10.27
2023-10-09T06:03:50.710Z,10.30
2023-10-09T06:06:34.159Z,10.34
2023-10-09T06:09:29.868Z,10.38
2023-10-09T06:11:57.713Z,10.42
2023-10-09T06:14:43.307Z,10.44
2023-10-09T06:17:24.429Z,10.46
2023-10-09T06:19:59.596Z,10.48
2023-10-09T06:22:44.193Z,10.45
2023-10-09T06:25:13.102Z,10.45
2023-10-09T06:27:59.088Z,10.42
2023-10-09T06:30:27.948Z,10.43
2023-10-09T06:33:20.778Z,10.44
2023-10-09T06:35:55.850Z,10.45
2023-10-09T06:38:34.832Z,10.49
2023-10-09T06:41:35.974Z,10.47
2023-10-09T06:44:07.703Z,10.51
2023-10-09T06:46:53.738Z,10.50
2023-10-09T06:49:30.668Z,10.51
2023-10-09T06:52:14.878Z,10.50
2023-10-09T06:54:50.676Z,10.52
2023-10-09T06:57:41.636Z,10.54
2023-10-09T07:00:28.133Z,10.61
2023-10-09T07:02:57.552Z,10.65
2023-10-09T07:05:32.844Z,10.63
2023-10-09T07:08:19.938Z,10.67
2023-10-09T07:11:03.829Z,10.65
2023-10-09T07:13:30.978Z,10.74
2023-10-09T07:16:16.412Z,10.73
2023-10-09T07:18:50.602Z,10.82
2023-10-09T07:21:28.925Z,10.84
2023-10-09T07:24:04.548Z,10.87
2023-10-09T07:26:38.932Z,10.81
2023-10-09T07:29:22.755Z,10.78
2023-10-09T07:31:59.210Z,10.79
2023-10-09T07:34:32.015Z,10.77
2023-10-09T07:37:05.080Z,10.81
2023-10-09T07:39:36.386Z,10.81
2023-10-09T07:42:21.002Z,10.82
2023-10-09T07:44:54.141Z,10.85
2023-10-09T07:47:34.360Z,10.84
2023-10-09T07:50:03.716Z,10.91
2023-10-09T07:52:32.769Z,10.89
2023-10-09T07:55:15.731Z,10.80
2023-10-09T07:57:53.096Z,10.87
2023-10-09T08:00:34.800Z,10.94
2023-10-09T08:03:04.396Z,10.99
2023-10-09T08:05:35.351Z,11.05
2023-10-09T08:08:40.184Z,11.14
2023-10-09T08:11:35.724Z,11.20
2023-10-09T08:14:03.835Z,11.17
2023-10-09T08:16:39.677Z,11.12
2023-10-09T08:19:33.540Z,11.05
2023-10-09T08:22:18.717Z,11.06
2023-10-09T08:24:57.276Z,11.08
2023-10-09T08:27:48.309Z,11.05
2023-10-09T08:30:30.205Z,11.05
2023-10-09T08:35:47.511Z,11.10
2023-10-09T08:38:18.207Z,11.22
2023-10-09T08:40:47.634Z,11.27
2023-10-09T08:43:17.310Z,11.33
2023-10-09T08:45:48.067Z,11.37
2023-10-09T08:48:17.507Z,11.43
2023-10-09T08:50:46.603Z,11.40
2023-10-09T08:53:14.959Z,11.45
2023-10-09T08:55:43.587Z,11.47
2023-10-09T08:58:17.060Z,11.54
2023-10-09T09:00:46.909Z,11.52
2023-10-09T09:03:17.154Z,11.57
2023-10-09T09:05:48.362Z,11.63
2023-10-09T09:08:26.939Z,11.74
2023-10-09T09:11:06.779Z,11.72
2023-10-09T09:13:35.860Z,11.82
2023-10-09T09:16:03.949Z,11.91
2023-10-09T09:18:38.870Z,11.95
2023-10-09T09:21:23.216Z,11.84
2023-10-09T09:24:02.357Z,11.74
2023-10-09T09:26:46.233Z,11.79
2023-10-09T09:29:19.125Z,11.77
2023-10-09T09:31:59.018Z,11.88
2023-10-09T09:34:30.238Z,12.00
2023-10-09T09:36:59.980Z,12.12
2023-10-09T09:39:41.885Z,12.16
2023-10-09T09:42:19.607Z,12.12
2023-10-09T09:44:49.290Z,12.13
2023-10-09T09:47:28.150Z,12.22
2023-10-09T09:50:00.804Z,12.40
2023-10-09T09:52:31.032Z,12.43
2023-10-09T09:54:59.522Z,12.55
2023-10-09T09:57:28.195Z,12.61
2023-10-09T09:59:59.211Z,12.70
2023-10-09T10:02:34.686Z,12.91
2023-10-09T10:05:08.355Z,13.03
2023-10-09T10:07:44.928Z,13.15
2023-10-09T10:10:48.952Z,13.21
2023-10-09T10:13:24.992Z,13.18
2023-10-09T10:16:15.254Z,13.06
2023-10-09T10:19:00.926Z,12.98
2023-10-09T10:21:39.832Z,12.74
2023-10-09T10:24:55.479Z,12.60
2023-10-09T10:27:27.609Z,12.61
2023-10-09T10:30:34.594Z,12.51
2023-10-09T10:33:17.169Z,12.53
2023-10-09T10:35:54.088Z,12.51
2023-10-09T10:38:35.265Z,12.47
2023-10-09T10:41:17.569Z,12.47
2023-10-09T10:44:00.882Z,12.45
2023-10-09T10:46:43.216Z,12.46
2023-10-09T10:49:22.291Z,12.47
2023-10-09T10:51:55.066Z,12.44
2023-10-09T10:54:41.700Z,12.41
2023-10-09T10:57:30.482Z,12.44
2023-10-09T11:00:13.815Z,12.46
2023-10-09T11:02:44.491Z,12.50
2023-10-09T11:05:24.730Z,12.45
2023-10-09T11:07:57.620Z,12.43
2023-10-09T11:10:32.671Z,12.44
2023-10-09T11:13:17.974Z,12.32
2023-10-09T11:15:47.619Z,12.41
2023-10-09T11:18:20.713Z,12.49
2023-10-09T11:21:18.507Z,12.45
2023-10-09T11:23:59.291Z,12.45
2023-10-09T11:26:28.778Z,12.47
2023-10-09T11:29:24.520Z,12.52
2023-10-09T11:32:02.936Z,12.56
2023-10-09T11:34:33.689Z,12.61
2023-10-09T11:37:03.335Z,12.60
2023-10-09T11:39:51.904Z,12.64
2023-10-09T11:42:36.849Z,12.71
2023-10-09T11:45:20.396Z,12.79
2023-10-09T11:47:58.334Z,12.86
2023-10-09T11:50:44.188Z,12.90
2023-10-09T11:53:34.515Z,12.86
2023-10-09T11:56:03.102Z,12.89
2023-10-09T11:58:30.808Z,12.88
2023-10-09T12:01:07.051Z,12.88
2023-10-09T12:03:35.253Z,12.96
2023-10-09T12:06:07.810Z,13.07
2023-10-09T12:08:39.053Z,13.15
2023-10-09T12:11:09.506Z,13.25
2023-10-09T12:13:39.591Z,13.34
2023-10-09T12:16:10.301Z,13.61
2023-10-09T12:18:40.244Z,13.56
2023-10-09T12:21:07.880Z,13.65
2023-10-09T12:23:37.545Z,13.59
2023-10-09T12:26:05.891Z,13.49
2023-10-09T12:28:35.709Z,13.49
2023-10-09T12:31:03.598Z,13.52
2023-10-09T12:33:32.030Z,13.50
2023-10-09T12:36:01.076Z,13.48
2023-10-09T12:38:32.759Z,13.52
2023-10-09T12:41:20.583Z,13.59
2023-10-09T12:43:48.514Z,13.57
2023-10-09T12:46:18.406Z,13.66
2023-10-09T12:48:48.105Z,13.67
2023-10-09T12:51:17.669Z,13.75
2023-10-09T12:53:46.602Z,13.80
2023-10-09T12:56:16.884Z,13.85
2023-10-09T12:58:53.852Z,13.95
2023-10-09T13:01:21.963Z,13.96
2023-10-09T13:03:50.603Z,13.95
2023-10-09T13:06:25.180Z,13.91
2023-10-09T13:08:53.483Z,13.96
2023-10-09T13:11:23.034Z,13.95
2023-10-09T13:13:52.173Z,13.94
2023-10-09T13:16:24.274Z,14.02
2023-10-09T13:18:52.642Z,14.06
2023-10-09T13:21:21.266Z,13.94
2023-10-09T13:23:51.010Z,13.94
2023-10-09T13:26:32.973Z,13.93
2023-10-09T13:29:10.283Z,13.79
2023-10-09T13:31:39.150Z,13.77
2023-10-09T13:34:11.071Z,13.76
2023-10-09T13:36:38.780Z,13.62
2023-10-09T13:39:23.749Z,13.55
2023-10-09T13:41:58.689Z,13.58
2023-10-09T13:44:28.986Z,13.58
2023-10-09T13:46:57.486Z,13.53
2023-10-09T13:49:31.151Z,13.47
2023-10-09T13:51:59.771Z,13.45
2023-10-09T13:54:40.705Z,13.37
2023-10-09T13:57:11.621Z,13.39
2023-10-09T13:59:44.915Z,13.36
2023-10-09T14:02:18.798Z,13.38
2023-10-09T14:04:48.225Z,13.30
2023-10-09T14:07:18.228Z,13.35
2023-10-09T14:09:57.386Z,13.37
2023-10-09T14:12:27.327Z,13.36
2023-10-09T14:14:56.319Z,13.31
2023-10-09T14:17:26.841Z,13.31
2023-10-09T14:19:56.114Z,13.43
2023-10-09T14:22:26.019Z,13.48
2023-10-09T14:24:56.664Z,13.55
2023-10-09T14:27:27.209Z,13.58
2023-10-09T14:30:00.125Z,13.69
2023-10-09T14:32:30.290Z,13.74
2023-10-09T14:35:02.067Z,13.70
2023-10-09T14:37:30.508Z,13.67
2023-10-09T14:39:59.902Z,13.66
2023-10-09T14:42:29.207Z,13.65
2023-10-09T14:44:58.397Z,13.63
2023-10-09T14:47:27.155Z,13.64
2023-10-09T14:49:57.633Z,13.58
2023-10-09T14:52:25.413Z,13.52
2023-10-09T14:54:53.089Z,13.48
2023-10-09T14:57:20.784Z,13.40
2023-10-09T14:59:48.485Z,13.38
2023-10-09T15:02:18.105Z,13.35
2023-10-09T15:04:45.900Z,13.35
2023-10-09T15:07:23.780Z,13.31
2023-10-09T15:10:08.937Z,13.35
2023-10-09T15:12:40.777Z,13.35
2023-10-09T15:15:14.416Z,13.36
2023-10-09T15:17:45.095Z,13.34
2023-10-09T15:20:15.522Z,13.35
2023-10-09T15:22:43.433Z,13.29
2023-10-09T15:25:15.715Z,13.26
2023-10-09T15:27:44.108Z,13.21
2023-10-09T15:30:14.854Z,13.16
2023-10-09T15:32:44.567Z,13.12
2023-10-09T15:35:14.593Z,13.11
2023-10-09T15:37:43.300Z,13.10
2023-10-09T15:40:14.970Z,13.12
2023-10-09T15:42:42.737Z,13.15
2023-10-09T15:45:11.041Z,13.17
2023-10-09T15:47:38.728Z,13.12
2023-10-09T15:50:10.467Z,13.09
2023-10-09T15:52:39.238Z,13.11
2023-10-09T15:55:14.199Z,13.13
2023-10-09T15:57:42.661Z,13.13
2023-10-09T16:00:15.054Z,13.14
2023-10-09T16:02:44.368Z,13.12
2023-10-09T16:05:14.504Z,13.11
2023-10-09T16:07:42.764Z,13.11
2023-10-09T16:10:12.164Z,13.11
2023-10-09T16:12:40.799Z,13.09
2023-10-09T16:15:09.930Z,13.10
2023-10-09T16:17:38.502Z,13.06
2023-10-09T16:20:14.803Z,13.04
2023-10-09T16:22:46.767Z,13.01
2023-10-09T16:25:14.667Z,12.97
2023-10-09T16:27:47.679Z,12.94
2023-10-09T16:30:21.418Z,12.93
2023-10-09T16:32:49.514Z,12.93
2023-10-09T16:35:17.802Z,12.93
2023-10-09T16:37:50.539Z,12.90
2023-10-09T16:40:21.524Z,12.90
2023-10-09T16:42:54.242Z,12.88
2023-10-09T16:45:21.869Z,12.88
2023-10-09T16:47:52.393Z,12.82
2023-10-09T16:50:26.549Z,12.80
2023-10-09T16:52:55.697Z,12.78
2023-10-09T16:55:25.680Z,12.75
2023-10-09T16:57:53.558Z,12.76
2023-10-09T17:00:29.466Z,12.74
2023-10-09T17:02:58.101Z,12.74
2023-10-09T17:05:33.720Z,12.75
2023-10-09T17:08:02.849Z,12.75
2023-10-09T17:10:36.219Z,12.76
2023-10-09T17:13:05.102Z,12.76
2023-10-09T17:15:36.669Z,12.78
2023-10-09T17:18:04.908Z,12.77
2023-10-09T17:20:32.615Z,12.78
2023-10-09T17:23:01.058Z,12.78
2023-10-09T17:25:32.090Z,12.78
2023-10-09T17:28:00.853Z,12.78
2023-10-09T17:30:28.951Z,12.77
2023-10-09T17:32:58.750Z,12.76
2023-10-09T17:35:28.978Z,12.73
2023-10-09T17:37:57.695Z,12.71
2023-10-09T17:40:29.180Z,12.70
2023-10-09T17:42:58.461Z,12.70
2023-10-09T17:45:26.307Z,12.70
2023-10-09T17:47:55.663Z,12.73
2023-10-09T17:50:24.393Z,12.73
2023-10-09T17:52:55.236Z,12.76
2023-10-09T17:55:24.276Z,12.76
2023-10-09T17:57:51.936Z,12.76
2023-10-09T18:00:24.403Z,12.79
2023-10-09T18:02:53.199Z,12.81
2023-10-09T18:05:21.660Z,12.82
2023-10-09T18:07:51.059Z,12.83
2023-10-09T18:10:19.243Z,12.84
2023-10-09T18:12:46.831Z,12.84
2023-10-09T18:15:15.181Z,12.83
2023-10-09T18:17:45.437Z,12.86
2023-10-09T18:20:13.791Z,12.88
2023-10-09T18:22:41.575Z,12.87
2023-10-09T18:25:10.449Z,12.87
2023-10-09T18:27:39.373Z,12.87
2023-10-09T18:30:08.976Z,12.88
2023-10-09T18:32:37.887Z,12.87
2023-10-09T18:35:10.662Z,12.89
2023-10-09T18:37:39.650Z,12.88
2023-10-09T18:40:11.480Z,12.87
2023-10-09T18:42:39.732Z,12.88
2023-10-09T18:45:10.540Z,12.86
2023-10-09T18:47:40.192Z,12.85
2023-10-09T18:50:13.012Z,12.85
2023-10-09T18:52:43.793Z,12.84
2023-10-09T18:55:13.764Z,12.84
2023-10-09T18:57:41.801Z,12.81
2023-10-09T19:00:12.085Z,12.77
2023-10-09T19:02:40.143Z,12.76
2023-10-09T19:05:09.056Z,12.76
2023-10-09T19:07:39.182Z,12.76
2023-10-09T19:10:09.111Z,12.75
2023-10-09T19:12:37.458Z,12.75
2023-10-09T19:15:07.377Z,12.73
2023-10-09T19:17:36.509Z,12.74
2023-10-09T19:20:08.451Z,12.72
2023-10-09T19:22:38.651Z,12.74
2023-10-09T19:25:10.006Z,12.73
2023-10-09T19:27:37.725Z,12.71
2023-10-09T19:30:07.828Z,12.72
2023-10-09T19:32:36.189Z,12.73
2023-10-09T19:35:03.940Z,12.70
2023-10-09T19:37:32.115Z,12.71
2023-10-09T19:40:07.524Z,12.69
2023-10-09T19:42:35.728Z,12.64
2023-10-09T19:45:03.634Z,12.62
2023-10-09T19:47:31.361Z,12.59
2023-10-09T19:49:59.783Z,12.54
2023-10-09T19:52:27.530Z,12.50
2023-10-09T19:54:56.888Z,12.46
2023-10-09T19:57:26.828Z,12.43
2023-10-09T19:59:56.092Z,12.42
2023-10-09T20:02:24.263Z,12.42
2023-10-09T20:04:52.112Z,12.42
2023-10-09T20:07:20.045Z,12.40
2023-10-09T20:09:47.718Z,12.41
2023-10-09T20:12:15.341Z,12.43
2023-10-09T20:14:44.284Z,12.41
2023-10-09T20:17:13.352Z,12.45
2023-10-09T20:19:42.732Z,12.46
2023-10-09T20:22:11.831Z,12.48
2023-10-09T20:24:39.425Z,12.51
2023-10-09T20:27:07.077Z,12.55
2023-10-09T20:29:36.064Z,12.59
2023-10-09T20:32:06.771Z,12.62
2023-10-09T20:34:34.438Z,12.64
2023-10-09T20:37:04.023Z,12.62
2023-10-09T20:39:33.712Z,12.60
2023-10-09T20:42:02.075Z,12.56
2023-10-09T20:44:29.699Z,12.55
2023-10-09T20:46:57.406Z,12.51
2023-10-09T20:49:27.938Z,12.48
2023-10-09T20:51:58.017Z,12.47
2023-10-09T20:54:26.333Z,12.44
2023-10-09T20:56:53.924Z,12.40
2023-10-09T20:59:21.972Z,12.40
2023-10-09T21:01:50.631Z,12.42
2023-10-09T21:04:18.476Z,12.41
2023-10-09T21:06:48.284Z,12.32
2023-10-09T21:09:16.124Z,12.35
2023-10-09T21:11:43.818Z,12.37
2023-10-09T21:14:12.398Z,12.28
2023-10-09T21:16:40.304Z,12.28
2023-10-09T21:19:08.069Z,12.23
2023-10-09T21:21:35.760Z,12.19
2023-10-09T21:24:05.657Z,12.24
2023-10-09T21:26:33.883Z,12.25
2023-10-09T21:29:01.685Z,12.27
2023-10-09T21:31:29.381Z,12.30
2023-10-09T21:33:57.970Z,12.31
2023-10-09T21:36:25.672Z,12.32
2023-10-09T21:38:53.359Z,12.29
2023-10-09T21:41:23.330Z,12.31
2023-10-09T21:43:54.462Z,12.30
2023-10-09T21:46:26.329Z,12.35
2023-10-09T21:48:54.462Z,12.37
2023-10-09T21:51:22.467Z,12.39
2023-10-09T21:53:51.600Z,12.41
2023-10-09T21:56:21.029Z,12.38
2023-10-09T21:58:50.405Z,12.41
2023-10-09T22:01:20.351Z,12.41
2023-10-09T22:03:49.303Z,12.40
2023-10-09T22:06:17.112Z,12.40
2023-10-09T22:08:45.763Z,12.40
2023-10-09T22:11:13.561Z,12.40
2023-10-09T22:13:41.292Z,12.40
2023-10-09T22:16:10.335Z,12.40
2023-10-09T22:18:41.540Z,12.37
2023-10-09T22:21:12.145Z,12.37
2023-10-09T22:23:46.761Z,12.41
2023-10-09T22:26:15.925Z,12.38
2023-10-09T22:28:47.104Z,12.41
2023-10-09T22:31:17.745Z,12.39
2023-10-09T22:33:51.366Z,12.38
2023-10-09T22:36:38.170Z,12.38
2023-10-09T22:39:21.693Z,12.41
2023-10-09T22:41:51.370Z,12.43
2023-10-09T22:44:20.574Z,12.45
2023-10-09T22:46:49.729Z,12.48
2023-10-09T22:49:18.679Z,12.50
2023-10-09T22:51:51.824Z,12.53
2023-10-09T22:54:24.254Z,12.51
2023-10-09T22:56:54.162Z,12.49
2023-10-09T22:59:27.870Z,12.46
2023-10-09T23:02:00.251Z,12.45
2023-10-09T23:04:39.137Z,12.48
2023-10-09T23:07:15.311Z,12.52
2023-10-09T23:09:50.844Z,12.52
2023-10-09T23:12:23.773Z,12.51
2023-10-09T23:14:53.260Z,12.49
2023-10-09T23:17:43.151Z,12.49
2023-10-09T23:20:19.574Z,12.47
2023-10-09T23:22:49.876Z,12.48
2023-10-09T23:25:28.768Z,12.50
2023-10-09T23:28:15.309Z,12.54
2023-10-09T23:30:44.917Z,12.54
2023-10-09T23:33:21.778Z,12.49
2023-10-09T23:35:51.830Z,12.45
2023-10-09T23:38:32.517Z,12.47
2023-10-09T23:41:00.466Z,12.48
2023-10-09T23:43:30.264Z,12.47
2023-10-09T23:45:59.483Z,12.46
2023-10-09T23:48:29.938Z,12.49
2023-10-09T23:51:02.850Z,12.54
2023-10-09T23:53:35.031Z,12.55
2023-10-09T23:56:09.476Z,12.57
2023-10-09T23:58:38.517Z,12.60
